createdAt,value
2022-10-29T00:02:01.056Z,88.19
2022-10-29T00:04:27.423Z,88.13
2022-10-29T00:06:53.758Z,88.09
2022-10-29T00:09:20.086Z,87.92
2022-10-29T00:11:46.430Z,88.04
2022-10-29T00:14:12.828Z,88.12
2022-10-29T00:16:40.256Z,88.81
2022-10-29T00:19:07.334Z,89.68
2022-10-29T00:21:34.499Z,90.02
2022-10-29T00:24:00.988Z,90.22
2022-10-29T00:26:30.040Z,89.62
2022-10-29T00:28:56.838Z,89.47
2022-10-29T00:31:24.351Z,88.91
2022-10-29T00:33:52.995Z,88.63
2022-10-29T00:36:26.161Z,88.79
2022-10-29T00:38:52.502Z,89.14
2022-10-29T00:41:21.862Z,89.63
2022-10-29T00:43:51.140Z,90.20
2022-10-29T00:47:07.230Z,89.98
2022-10-29T00:49:35.015Z,89.93
2022-10-29T00:52:03.982Z,89.42
2022-10-29T00:54:33.977Z,89.19
2022-10-29T00:57:07.326Z,89.06
2022-10-29T00:59:33.743Z,89.03
2022-10-29T01:02:00.232Z,88.96
2022-10-29T01:04:27.168Z,89.51
2022-10-29T01:06:55.659Z,89.42
2022-10-29T01:09:21.969Z,89.54
2022-10-29T01:12:22.005Z,89.55
2022-10-29T01:15:07.785Z,89.33
2022-10-29T01:18:01.382Z,89.44
2022-10-29T01:20:42.814Z,89.24
2022-10-29T01:23:42.189Z,89.20
2022-10-29T01:26:29.179Z,88.88
2022-10-29T01:29:28.355Z,89.11
2022-10-29T01:32:11.081Z,88.90
2022-10-29T01:34:51.210Z,88.80
2022-10-29T01:37:23.432Z,88.65
2022-10-29T01:39:56.515Z,88.81
2022-10-29T01:42:38.623Z,88.64
2022-10-29T01:45:11.869Z,88.79
2022-10-29T01:47:58.255Z,89.13
2022-10-29T01:50:25.670Z,88.82
2022-10-29T01:52:53.499Z,89.24
2022-10-29T01:55:23.162Z,89.67
2022-10-29T01:57:49.503Z,89.75
2022-10-29T02:00:19.669Z,90.50
2022-10-29T02:03:09.762Z,90.09
2022-10-29T02:05:58.182Z,90.15
2022-10-29T02:09:00.875Z,90.34
2022-10-29T02:11:49.667Z,90.21
2022-10-29T02:14:23.139Z,90.23
2022-10-29T02:16:49.823Z,89.96
2022-10-29T02:19:16.280Z,89.76
2022-10-29T02:21:44.189Z,90.02
2022-10-29T02:24:11.299Z,89.93
2022-10-29T02:26:37.701Z,89.84
2022-10-29T02:29:04.135Z,90.10
2022-10-29T02:31:30.514Z,90.08
2022-10-29T02:33:57.055Z,90.00
2022-10-29T02:36:23.584Z,90.29
2022-10-29T02:38:50.018Z,90.20
2022-10-29T02:41:16.339Z,90.41
2022-10-29T02:43:42.676Z,90.40
2022-10-29T02:46:18.686Z,90.22
2022-10-29T02:48:45.337Z,90.30
2022-10-29T02:51:11.734Z,90.13
2022-10-29T02:53:38.757Z,90.09
2022-10-29T02:56:06.363Z,90.39
2022-10-29T02:58:32.830Z,90.21
2022-10-29T03:00:59.358Z,90.69
2022-10-29T03:03:26.187Z,90.63
2022-10-29T03:05:52.578Z,90.80
2022-10-29T03:08:19.294Z,90.75
2022-10-29T03:10:45.743Z,90.69
2022-10-29T03:13:12.399Z,91.03
2022-10-29T03:15:38.792Z,90.58
2022-10-29T03:18:05.528Z,90.97
2022-10-29T03:20:32.009Z,90.56
2022-10-29T03:22:58.399Z,90.80
2022-10-29T03:25:24.762Z,90.77
2022-10-29T03:27:51.175Z,90.72
2022-10-29T03:30:17.935Z,90.83
2022-10-29T03:32:45.886Z,91.14
2022-10-29T03:35:14.858Z,90.98
2022-10-29T03:37:41.325Z,91.53
2022-10-29T03:40:09.546Z,91.08
2022-10-29T03:42:37.535Z,91.35
2022-10-29T03:45:04.071Z,91.27
2022-10-29T03:47:30.406Z,91.42
2022-10-29T03:49:56.819Z,91.57
2022-10-29T03:52:23.167Z,91.42
2022-10-29T03:54:49.486Z,91.60
2022-10-29T03:57:15.804Z,91.39
2022-10-29T03:59:42.125Z,91.68
2022-10-29T04:02:09.223Z,91.76
2022-10-29T04:04:35.633Z,91.67
2022-10-29T04:07:02.009Z,91.75
2022-10-29T04:09:28.399Z,91.69
2022-10-29T04:11:54.743Z,92.18
2022-10-29T04:14:21.051Z,92.28
2022-10-29T04:16:47.568Z,92.12
2022-10-29T04:19:13.881Z,91.84
2022-10-29T04:29:59.246Z,92.18
2022-10-29T04:32:25.651Z,92.08
2022-10-29T04:34:51.953Z,92.01
2022-10-29T04:37:18.305Z,91.92
2022-10-29T04:39:44.628Z,91.60
2022-10-29T04:42:10.954Z,91.44
2022-10-29T04:44:37.842Z,91.61
2022-10-29T04:47:04.264Z,91.24
2022-10-29T04:49:30.640Z,91.39
2022-10-29T04:51:57.103Z,91.32
2022-10-29T04:54:23.444Z,91.39
2022-10-29T04:56:49.794Z,91.46
2022-10-29T04:59:16.285Z,91.23
2022-10-29T05:01:42.911Z,91.40
2022-10-29T05:04:09.445Z,91.39
2022-10-29T05:06:35.923Z,90.84
2022-10-29T05:09:02.265Z,90.80
2022-10-29T05:11:28.676Z,90.86
2022-10-29T05:13:55.029Z,91.00
2022-10-29T05:16:21.584Z,91.27
2022-10-29T05:18:48.032Z,91.20
2022-10-29T05:21:15.046Z,91.33
2022-10-29T05:23:41.479Z,91.43
2022-10-29T05:26:07.886Z,91.24
2022-10-29T05:28:34.211Z,91.02
2022-10-29T05:31:02.400Z,91.17
2022-10-29T05:33:28.800Z,90.96
2022-10-29T05:35:55.115Z,90.72
2022-10-29T05:38:21.491Z,91.23
2022-10-29T05:40:47.825Z,91.19
2022-10-29T05:43:15.769Z,91.09
2022-10-29T05:45:42.504Z,91.11
2022-10-29T05:50:41.776Z,91.10
2022-10-29T05:53:11.408Z,90.91
2022-10-29T05:55:38.707Z,91.23
2022-10-29T05:58:07.906Z,91.87
2022-10-29T06:00:37.120Z,91.67
2022-10-29T06:03:04.019Z,91.80
2022-10-29T06:05:30.450Z,91.53
2022-10-29T06:07:58.463Z,91.28
2022-10-29T06:10:26.645Z,91.27
2022-10-29T06:12:52.997Z,91.14
2022-10-29T06:15:19.597Z,91.45
2022-10-29T06:17:46.737Z,91.17
2022-10-29T06:20:18.288Z,91.22
2022-10-29T06:22:44.710Z,91.39
2022-10-29T06:25:11.092Z,91.32
2022-10-29T06:27:37.695Z,91.43
2022-10-29T06:30:05.684Z,91.35
2022-10-29T06:32:32.341Z,91.57
2022-10-29T06:34:58.873Z,91.64
2022-10-29T06:37:25.214Z,91.54
2022-10-29T06:39:51.572Z,91.57
2022-10-29T06:42:17.895Z,91.33
2022-10-29T06:44:44.199Z,91.53
2022-10-29T06:47:10.608Z,91.62
2022-10-29T06:49:36.913Z,91.27
2022-10-29T06:52:03.436Z,91.43
2022-10-29T06:54:29.784Z,91.55
2022-10-29T06:56:56.181Z,91.37
2022-10-29T06:59:24.326Z,91.69
2022-10-29T07:01:50.802Z,91.77
2022-10-29T07:04:18.381Z,91.97
2022-10-29T07:06:44.901Z,92.13
2022-10-29T07:09:11.424Z,92.28
2022-10-29T07:11:37.766Z,92.66
2022-10-29T07:14:05.879Z,92.42
2022-10-29T07:16:32.245Z,92.45
2022-10-29T07:18:58.683Z,92.17
2022-10-29T07:21:25.032Z,92.11
2022-10-29T07:23:51.591Z,92.23
2022-10-29T07:26:17.957Z,92.26
2022-10-29T07:28:44.294Z,92.33
2022-10-29T07:31:11.188Z,92.27
2022-10-29T07:33:37.508Z,92.32
2022-10-29T07:36:04.046Z,92.32
2022-10-29T07:38:30.421Z,92.25
2022-10-29T07:40:56.840Z,92.26
2022-10-29T07:43:23.538Z,92.67
2022-10-29T07:45:51.024Z,93.24
2022-10-29T07:48:19.212Z,93.57
2022-10-29T07:50:45.927Z,93.97
2022-10-29T07:53:12.310Z,94.15
2022-10-29T07:55:38.695Z,94.11
2022-10-29T07:58:07.789Z,94.44
2022-10-29T08:00:37.149Z,94.40
2022-10-29T08:03:04.429Z,94.43
2022-10-29T08:05:31.003Z,94.38
2022-10-29T08:07:58.387Z,94.51
2022-10-29T08:10:25.477Z,94.22
2022-10-29T08:13:00.775Z,94.08
2022-10-29T08:15:29.259Z,94.01
2022-10-29T08:17:56.759Z,93.75
2022-10-29T08:20:25.450Z,93.64
2022-10-29T08:22:51.804Z,93.48
2022-10-29T08:25:18.765Z,93.02
2022-10-29T08:27:45.412Z,92.58
2022-10-29T08:30:14.314Z,92.42
2022-10-29T08:32:46.504Z,91.63
2022-10-29T08:35:13.622Z,91.45
2022-10-29T08:37:44.052Z,91.15
2022-10-29T08:40:19.851Z,90.65
2022-10-29T08:43:15.265Z,90.45
2022-10-29T08:45:48.245Z,89.77
2022-10-29T08:48:46.322Z,88.83
2022-10-29T08:51:23.516Z,88.34
2022-10-29T08:54:17.041Z,86.94
2022-10-29T08:56:44.238Z,86.19
2022-10-29T08:59:14.887Z,85.66
2022-10-29T09:01:41.855Z,84.90
2022-10-29T09:04:44.212Z,85.01
2022-10-29T09:07:28.528Z,83.30
2022-10-29T09:10:00.817Z,83.69
2022-10-29T09:12:44.471Z,83.66
2022-10-29T09:15:19.835Z,84.00
2022-10-29T09:18:10.090Z,83.95
2022-10-29T09:21:00.856Z,84.32
2022-10-29T09:23:49.020Z,84.39
2022-10-29T09:26:40.830Z,84.44
2022-10-29T09:29:44.274Z,84.82
2022-10-29T09:32:19.950Z,84.91
2022-10-29T09:34:52.907Z,84.84
2022-10-29T09:37:24.816Z,84.89
2022-10-29T09:39:53.066Z,84.37
2022-10-29T09:42:47.351Z,83.85
2022-10-29T09:45:18.154Z,83.75
2022-10-29T09:48:07.678Z,84.06
2022-10-29T09:50:52.212Z,83.85
2022-10-29T09:53:18.679Z,84.26
2022-10-29T09:55:53.352Z,83.91
2022-10-29T09:58:23.229Z,83.35
2022-10-29T10:00:51.250Z,83.82
2022-10-29T10:03:27.056Z,83.72
2022-10-29T10:06:08.337Z,83.61
2022-10-29T10:08:55.535Z,83.61
2022-10-29T10:11:23.132Z,83.28
2022-10-29T10:13:59.857Z,82.89
2022-10-29T10:16:29.849Z,82.79
2022-10-29T10:18:56.352Z,82.93
2022-10-29T10:21:28.948Z,82.59
2022-10-29T10:23:57.568Z,82.51
2022-10-29T10:26:39.783Z,81.71
2022-10-29T10:29:13.773Z,81.75
2022-10-29T10:31:47.654Z,81.38
2022-10-29T10:34:18.990Z,80.36
2022-10-29T10:36:55.884Z,79.96
2022-10-29T10:39:42.119Z,80.56
2022-10-29T10:42:25.744Z,79.75
2022-10-29T10:44:54.407Z,79.35
2022-10-29T10:47:24.278Z,78.97
2022-10-29T10:49:50.836Z,78.51
2022-10-29T10:52:25.176Z,78.57
2022-10-29T10:55:24.073Z,78.15
2022-10-29T10:58:00.102Z,78.72
2022-10-29T11:00:30.723Z,77.80
2022-10-29T11:03:13.376Z,77.54
2022-10-29T11:05:58.443Z,77.89
2022-10-29T11:08:34.778Z,77.39
2022-10-29T11:11:08.250Z,78.00
2022-10-29T11:13:34.683Z,76.93
2022-10-29T11:16:13.282Z,75.03
2022-10-29T11:18:52.079Z,75.03
2022-10-29T11:21:25.288Z,74.48
2022-10-29T11:24:00.790Z,74.33
2022-10-29T11:26:35.083Z,74.02
2022-10-29T11:29:31.133Z,73.33
2022-10-29T11:32:30.139Z,73.18
2022-10-29T11:35:05.078Z,73.30
2022-10-29T11:37:37.461Z,72.58
2022-10-29T11:40:24.011Z,72.47
2022-10-29T11:42:50.513Z,72.78
2022-10-29T11:45:36.060Z,73.88
2022-10-29T11:48:08.815Z,72.39
2022-10-29T11:51:03.450Z,73.20
2022-10-29T11:53:38.938Z,73.71
2022-10-29T11:56:42.463Z,72.96
2022-10-29T11:59:34.529Z,72.29
2022-10-29T12:02:09.942Z,73.16
2022-10-29T12:04:57.520Z,71.80
2022-10-29T12:07:45.170Z,71.78
2022-10-29T12:10:42.702Z,71.67
2022-10-29T12:13:22.383Z,71.29
2022-10-29T12:16:03.591Z,70.49
2022-10-29T12:18:42.774Z,70.35
2022-10-29T12:21:24.719Z,69.30
2022-10-29T12:24:02.961Z,68.53
2022-10-29T12:26:44.442Z,69.55
2022-10-29T12:29:19.988Z,68.33
2022-10-29T12:31:52.268Z,67.84
2022-10-29T12:34:41.904Z,67.23
2022-10-29T12:37:23.181Z,65.75
2022-10-29T12:39:55.674Z,64.69
2022-10-29T12:42:25.503Z,63.52
2022-10-29T12:45:29.814Z,63.84
2022-10-29T12:48:19.317Z,63.76
2022-10-29T12:51:13.124Z,63.25
2022-10-29T12:54:14.443Z,64.51
2022-10-29T12:56:42.948Z,64.69
2022-10-29T12:59:25.398Z,65.38
2022-10-29T13:04:38.552Z,64.94
2022-10-29T13:07:23.313Z,65.23
2022-10-29T13:10:22.213Z,65.88
2022-10-29T13:13:20.042Z,66.42
2022-10-29T13:15:59.811Z,67.19
2022-10-29T13:18:44.752Z,66.95
2022-10-29T13:21:11.183Z,67.15
2022-10-29T13:23:37.786Z,67.59
2022-10-29T13:26:05.963Z,66.74
2022-10-29T13:28:35.252Z,66.72
2022-10-29T13:31:01.493Z,66.00
2022-10-29T13:33:27.921Z,66.81
2022-10-29T13:36:06.523Z,67.27
2022-10-29T13:39:04.341Z,66.87
2022-10-29T13:41:44.537Z,66.83
2022-10-29T13:44:14.595Z,66.00
2022-10-29T13:46:54.096Z,66.31
2022-10-29T13:49:26.961Z,66.91
2022-10-29T13:51:58.005Z,67.75
2022-10-29T13:54:34.622Z,66.88
2022-10-29T13:57:04.446Z,67.39
2022-10-29T13:59:48.521Z,68.00
2022-10-29T14:02:25.704Z,68.03
2022-10-29T14:04:58.551Z,68.29
2022-10-29T14:07:35.421Z,68.54
2022-10-29T14:10:08.299Z,67.61
2022-10-29T14:12:36.214Z,67.73
2022-10-29T14:15:09.914Z,68.58
2022-10-29T14:17:36.310Z,69.04
2022-10-29T14:20:03.435Z,68.69
2022-10-29T14:22:37.015Z,68.96
2022-10-29T14:25:27.241Z,69.67
2022-10-29T14:28:16.212Z,69.28
2022-10-29T14:30:43.359Z,70.22
2022-10-29T14:33:24.960Z,69.64
2022-10-29T14:35:55.942Z,70.19
2022-10-29T14:38:28.339Z,70.32
2022-10-29T14:40:54.747Z,70.67
2022-10-29T14:43:27.624Z,70.30
2022-10-29T14:45:56.991Z,70.63
2022-10-29T14:48:23.390Z,71.24
2022-10-29T14:50:51.295Z,71.49
2022-10-29T14:53:40.707Z,70.87
2022-10-29T14:56:11.103Z,71.74
2022-10-29T14:58:38.332Z,71.65
2022-10-29T15:01:12.126Z,71.98
2022-10-29T15:03:38.685Z,72.10
2022-10-29T15:06:16.193Z,72.21
2022-10-29T15:08:45.242Z,72.28
2022-10-29T15:11:40.439Z,72.69
2022-10-29T15:16:58.086Z,72.73
2022-10-29T15:19:24.785Z,72.96
2022-10-29T15:21:51.279Z,72.99
2022-10-29T15:24:21.464Z,73.02
2022-10-29T15:26:50.729Z,73.31
2022-10-29T15:29:30.616Z,73.39
2022-10-29T15:32:00.103Z,73.53
2022-10-29T15:34:32.277Z,74.08
2022-10-29T15:37:33.558Z,74.01
2022-10-29T15:40:06.849Z,74.01
2022-10-29T15:42:35.218Z,74.39
2022-10-29T15:45:07.511Z,74.99
2022-10-29T15:47:35.700Z,74.95
2022-10-29T15:50:02.497Z,74.96
2022-10-29T15:52:37.488Z,75.04
2022-10-29T15:55:14.959Z,75.39
2022-10-29T15:57:43.166Z,75.34
2022-10-29T16:00:11.506Z,75.33
2022-10-29T16:02:38.044Z,75.13
2022-10-29T16:05:04.852Z,75.25
2022-10-29T16:07:31.385Z,75.25
2022-10-29T16:09:59.347Z,74.99
2022-10-29T16:12:26.112Z,75.23
2022-10-29T16:14:52.517Z,75.20
2022-10-29T16:17:21.080Z,75.47
2022-10-29T16:19:47.654Z,75.22
2022-10-29T16:22:23.676Z,75.71
2022-10-29T16:24:50.078Z,75.77
2022-10-29T16:27:18.330Z,75.70
2022-10-29T16:29:46.918Z,75.87
2022-10-29T16:32:18.482Z,75.96
2022-10-29T16:34:44.854Z,75.99
2022-10-29T16:37:16.524Z,76.02
2022-10-29T16:39:43.100Z,76.06
2022-10-29T16:42:27.643Z,76.05
2022-10-29T16:44:53.957Z,76.15
2022-10-29T16:47:20.301Z,76.45
2022-10-29T16:49:46.615Z,76.39
2022-10-29T16:52:17.395Z,76.81
2022-10-29T16:54:47.396Z,76.77
2022-10-29T16:57:13.758Z,76.66
2022-10-29T16:59:40.145Z,76.69
2022-10-29T17:02:06.738Z,76.66
2022-10-29T17:04:33.138Z,77.00
2022-10-29T17:06:59.483Z,76.72
2022-10-29T17:09:25.914Z,76.94
2022-10-29T17:11:52.315Z,77.02
2022-10-29T17:14:18.630Z,77.16
2022-10-29T17:16:44.955Z,77.36
2022-10-29T17:19:11.531Z,77.62
2022-10-29T17:21:37.826Z,77.67
2022-10-29T17:24:07.713Z,77.82
2022-10-29T17:26:34.530Z,77.74
2022-10-29T17:29:00.867Z,78.09
2022-10-29T17:31:27.365Z,78.34
2022-10-29T17:33:53.705Z,78.11
2022-10-29T17:36:20.097Z,78.40
2022-10-29T17:38:46.666Z,78.57
2022-10-29T17:41:13.057Z,78.52
2022-10-29T17:43:39.459Z,78.52
2022-10-29T17:46:06.004Z,78.60
2022-10-29T17:48:32.499Z,78.84
2022-10-29T17:51:01.868Z,78.88
2022-10-29T17:53:29.862Z,79.00
2022-10-29T17:56:00.315Z,79.06
2022-10-29T17:58:27.298Z,79.37
2022-10-29T18:00:54.034Z,79.35
2022-10-29T18:03:24.316Z,79.45
2022-10-29T18:05:50.686Z,79.60
2022-10-29T18:08:17.220Z,79.65
2022-10-29T18:10:43.526Z,79.77
2022-10-29T18:13:09.851Z,79.55
2022-10-29T18:15:36.175Z,79.72
2022-10-29T18:18:02.524Z,79.70
2022-10-29T18:20:28.855Z,79.79
2022-10-29T18:22:56.254Z,80.09
2022-10-29T18:25:22.784Z,80.26
2022-10-29T18:27:52.187Z,80.50
2022-10-29T18:30:22.667Z,80.49
2022-10-29T18:32:49.286Z,80.63
2022-10-29T18:35:15.992Z,80.82
2022-10-29T18:37:42.350Z,80.93
2022-10-29T18:40:09.295Z,80.88
2022-10-29T18:42:35.627Z,80.71
2022-10-29T18:45:01.980Z,80.75
2022-10-29T18:47:28.362Z,80.70
2022-10-29T18:49:54.729Z,80.74
2022-10-29T18:52:21.052Z,80.57
2022-10-29T18:54:47.583Z,81.03
2022-10-29T18:57:16.849Z,81.68
2022-10-29T18:59:46.076Z,81.51
2022-10-29T19:02:12.518Z,81.84
2022-10-29T19:04:38.966Z,81.94
2022-10-29T19:07:05.364Z,82.00
2022-10-29T19:09:31.751Z,82.04
2022-10-29T19:11:59.648Z,82.06
2022-10-29T19:14:26.290Z,82.19
2022-10-29T19:16:52.638Z,82.23
2022-10-29T19:19:21.295Z,82.58
2022-10-29T19:21:50.504Z,82.45
2022-10-29T19:24:17.014Z,82.36
2022-10-29T19:26:44.026Z,82.18
2022-10-29T19:29:11.298Z,82.11
2022-10-29T19:31:37.689Z,82.25
2022-10-29T19:34:06.489Z,82.50
2022-10-29T19:36:34.339Z,82.42
2022-10-29T19:39:00.901Z,82.56
2022-10-29T19:41:27.639Z,82.61
2022-10-29T19:43:53.963Z,82.51
2022-10-29T19:46:24.538Z,82.96
2022-10-29T19:48:53.086Z,83.39
2022-10-29T19:51:20.353Z,83.32
2022-10-29T19:53:47.942Z,83.75
2022-10-29T19:56:15.930Z,83.79
2022-10-29T19:58:43.234Z,83.93
2022-10-29T20:01:16.071Z,83.66
2022-10-29T20:03:43.051Z,83.65
2022-10-29T20:06:09.665Z,84.00
2022-10-29T20:08:36.849Z,84.00
2022-10-29T20:11:03.625Z,83.88
2022-10-29T20:13:30.097Z,84.18
2022-10-29T20:15:56.829Z,84.38
2022-10-29T20:18:23.300Z,84.77
2022-10-29T20:20:56.634Z,84.45
2022-10-29T20:23:25.427Z,84.28
2022-10-29T20:25:51.821Z,84.21
2022-10-29T20:28:18.156Z,84.35
2022-10-29T20:30:44.533Z,83.97
2022-10-29T20:33:10.886Z,83.90
2022-10-29T20:35:37.260Z,83.99
2022-10-29T20:38:04.304Z,83.98
2022-10-29T20:40:30.675Z,84.13
2022-10-29T20:42:57.047Z,84.00
2022-10-29T20:45:23.416Z,83.79
2022-10-29T20:47:49.787Z,83.55
2022-10-29T20:50:16.286Z,83.39
2022-10-29T20:52:48.156Z,83.62
2022-10-29T20:55:15.115Z,83.56
2022-10-29T20:57:41.437Z,83.34
2022-10-29T21:00:08.427Z,83.19
2022-10-29T21:02:34.811Z,83.11
2022-10-29T21:05:01.252Z,83.24
2022-10-29T21:07:27.592Z,83.27
2022-10-29T21:09:54.010Z,83.04
2022-10-29T21:12:20.372Z,83.05
2022-10-29T21:14:46.762Z,83.13
2022-10-29T21:17:13.325Z,83.03
2022-10-29T21:19:39.857Z,83.01
2022-10-29T21:22:06.238Z,83.19
2022-10-29T21:24:32.579Z,83.13
2022-10-29T21:26:58.915Z,83.17
2022-10-29T21:29:25.294Z,83.27
2022-10-29T21:31:51.600Z,83.60
2022-10-29T21:34:17.938Z,83.41
2022-10-29T21:36:44.329Z,83.27
2022-10-29T21:39:10.730Z,83.36
2022-10-29T21:41:37.036Z,83.36
2022-10-29T21:44:03.608Z,83.06
2022-10-29T21:46:29.933Z,83.35
2022-10-29T21:48:56.618Z,83.52
2022-10-29T21:51:23.053Z,83.34
2022-10-29T21:53:49.386Z,83.47
2022-10-29T21:56:15.877Z,83.54
2022-10-29T21:58:42.951Z,83.95
2022-10-29T22:01:12.042Z,84.36
2022-10-29T22:03:41.273Z,84.21
2022-10-29T22:06:19.873Z,84.10
2022-10-29T22:08:47.223Z,83.89
2022-10-29T22:11:14.836Z,83.82
2022-10-29T22:13:41.309Z,83.99
2022-10-29T22:16:10.713Z,84.07
2022-10-29T22:18:37.679Z,83.96
2022-10-29T22:21:24.343Z,84.38
2022-10-29T22:23:57.969Z,84.70
2022-10-29T22:26:26.806Z,84.45
2022-10-29T22:28:53.406Z,84.84
2022-10-29T22:31:21.535Z,84.63
2022-10-29T22:33:48.279Z,84.92
2022-10-29T22:36:20.411Z,84.93
2022-10-29T22:38:46.837Z,84.82
2022-10-29T22:41:15.818Z,84.95
2022-10-29T22:43:43.142Z,85.23
2022-10-29T22:46:10.745Z,85.11
2022-10-29T22:48:37.144Z,85.51
2022-10-29T22:51:11.491Z,85.42
2022-10-29T22:53:37.916Z,85.32
2022-10-29T22:56:05.024Z,85.36
2022-10-29T22:58:31.451Z,85.46
2022-10-29T23:01:08.852Z,85.48
2022-10-29T23:03:35.643Z,85.51
2022-10-29T23:06:04.248Z,85.43
2022-10-29T23:08:31.275Z,85.41
2022-10-29T23:10:58.318Z,85.39
2022-10-29T23:13:24.702Z,85.28
2022-10-29T23:15:52.735Z,85.18
2022-10-29T23:18:19.276Z,85.46
2022-10-29T23:20:45.762Z,85.81
2022-10-29T23:23:13.120Z,85.47
2022-10-29T23:25:41.451Z,85.56
2022-10-29T23:28:08.793Z,85.63
2022-10-29T23:30:35.364Z,85.85
2022-10-29T23:33:01.807Z,85.90
2022-10-29T23:35:28.118Z,85.95
2022-10-29T23:37:54.766Z,85.91
2022-10-29T23:40:21.377Z,85.82
2022-10-29T23:42:47.707Z,85.31
2022-10-29T23:45:16.854Z,85.65
2022-10-29T23:47:43.251Z,85.66
2022-10-29T23:50:09.809Z,85.90
2022-10-29T23:52:36.179Z,86.10
2022-10-29T23:55:02.517Z,86.25
2022-10-29T23:57:28.915Z,86.24
2022-10-29T23:59:55.238Z,86.14
